createdAt,value
2018-09-17T00:01:30.391Z,14.13
2018-09-17T00:03:58.830Z,14.10
2018-09-17T00:06:27.648Z,14.00
2018-09-17T00:08:56.652Z,13.97
2018-09-17T00:11:25.446Z,13.99
2018-09-17T00:13:54.237Z,13.99
2018-09-17T00:16:23.023Z,13.99
2018-09-17T00:18:51.765Z,13.97
2018-09-17T00:21:20.471Z,13.97
2018-09-17T00:23:49.414Z,13.91
2018-09-17T00:26:18.565Z,13.91
2018-09-17T00:28:47.194Z,13.91
2018-09-17T00:31:15.963Z,13.90
2018-09-17T00:33:44.444Z,13.89
2018-09-17T00:36:13.180Z,13.88
2018-09-17T00:38:41.795Z,13.85
2018-09-17T00:41:10.597Z,13.82
2018-09-17T00:43:39.081Z,13.82
2018-09-17T00:46:07.670Z,13.86
2018-09-17T00:48:36.045Z,13.83
2018-09-17T00:51:04.719Z,13.80
2018-09-17T00:53:33.171Z,13.79
2018-09-17T00:56:01.923Z,13.73
2018-09-17T00:58:30.402Z,13.64
2018-09-17T01:00:58.939Z,13.62
2018-09-17T01:03:27.488Z,13.60
2018-09-17T01:05:55.924Z,13.58
2018-09-17T01:08:24.377Z,13.53
2018-09-17T01:10:53.197Z,13.51
2018-09-17T01:13:21.975Z,13.46
2018-09-17T01:15:50.840Z,13.41
2018-09-17T01:18:19.258Z,13.34
2018-09-17T01:20:48.896Z,13.27
2018-09-17T01:23:17.357Z,13.28
2018-09-17T01:25:46.147Z,13.25
2018-09-17T01:28:14.951Z,13.23
2018-09-17T01:30:43.418Z,13.27
2018-09-17T01:33:11.978Z,13.20
2018-09-17T01:35:41.389Z,13.15
2018-09-17T01:38:09.859Z,13.09
2018-09-17T01:40:38.586Z,13.06
2018-09-17T01:43:07.666Z,13.11
2018-09-17T01:45:36.439Z,13.06
2018-09-17T01:48:04.973Z,13.04
2018-09-17T01:50:33.525Z,12.97
2018-09-17T01:53:02.022Z,12.99
2018-09-17T01:55:30.496Z,13.01
2018-09-17T01:57:59.096Z,12.97
2018-09-17T02:00:27.545Z,12.91
2018-09-17T02:02:56.148Z,12.90
2018-09-17T02:05:24.537Z,12.92
2018-09-17T02:07:53.196Z,12.88
2018-09-17T02:10:22.223Z,12.93
2018-09-17T02:12:50.630Z,12.89
2018-09-17T02:15:19.369Z,12.88
2018-09-17T02:17:48.340Z,12.87
2018-09-17T02:20:17.160Z,12.80
2018-09-17T02:22:45.641Z,12.80
2018-09-17T02:25:14.080Z,12.83
2018-09-17T02:27:42.516Z,12.79
2018-09-17T02:30:10.976Z,12.77
2018-09-17T02:32:39.359Z,12.75
2018-09-17T02:35:07.790Z,12.71
2018-09-17T02:37:36.277Z,12.72
2018-09-17T02:40:07.935Z,12.67
2018-09-17T02:42:37.247Z,12.51
2018-09-17T02:45:06.064Z,12.54
2018-09-17T02:47:34.616Z,12.56
2018-09-17T02:50:03.404Z,12.50
2018-09-17T02:52:32.398Z,12.46
2018-09-17T02:55:00.935Z,12.41
2018-09-17T02:57:29.664Z,12.41
2018-09-17T02:59:58.275Z,12.41
2018-09-17T03:02:26.738Z,12.40
2018-09-17T03:04:55.287Z,12.37
2018-09-17T03:07:23.789Z,12.37
2018-09-17T03:09:52.275Z,12.34
2018-09-17T03:12:20.594Z,12.34
2018-09-17T03:14:49.223Z,12.35
2018-09-17T03:17:18.999Z,12.36
2018-09-17T03:19:48.578Z,12.38
2018-09-17T03:22:17.136Z,12.37
2018-09-17T03:24:45.808Z,12.37
2018-09-17T03:27:14.291Z,12.39
2018-09-17T03:29:42.836Z,12.38
2018-09-17T03:32:11.300Z,12.32
2018-09-17T03:34:39.740Z,12.26
2018-09-17T03:37:08.221Z,12.18
2018-09-17T03:39:36.747Z,12.09
2018-09-17T03:42:05.414Z,12.08
2018-09-17T03:44:33.859Z,12.07
2018-09-17T03:47:02.352Z,12.13
2018-09-17T03:49:31.239Z,12.13
2018-09-17T03:51:59.653Z,12.13
2018-09-17T03:54:28.138Z,12.17
2018-09-17T03:56:56.643Z,12.16
2018-09-17T03:59:25.028Z,12.15
2018-09-17T04:01:53.747Z,12.14
2018-09-17T04:04:22.355Z,12.11
2018-09-17T04:06:50.874Z,12.14
2018-09-17T04:09:19.325Z,12.13
2018-09-17T04:11:47.875Z,12.12
2018-09-17T04:14:16.464Z,12.13
2018-09-17T04:16:45.014Z,12.14
2018-09-17T04:19:13.440Z,12.15
2018-09-17T04:21:41.929Z,12.13
2018-09-17T04:24:10.503Z,12.15
2018-09-17T04:26:39.013Z,12.17
2018-09-17T04:29:10.767Z,12.15
2018-09-17T04:31:39.266Z,12.14
2018-09-17T04:34:07.765Z,12.13
2018-09-17T04:36:36.376Z,12.14
2018-09-17T04:39:06.830Z,12.10
2018-09-17T04:41:35.296Z,12.03
2018-09-17T04:44:03.788Z,12.02
2018-09-17T04:46:32.168Z,12.00
2018-09-17T04:49:00.756Z,11.99
2018-09-17T04:51:29.310Z,11.98
2018-09-17T04:53:57.953Z,11.98
2018-09-17T04:56:26.430Z,11.95
2018-09-17T04:58:55.480Z,11.97
2018-09-17T05:01:24.149Z,11.93
2018-09-17T05:03:52.638Z,11.95
2018-09-17T05:06:21.190Z,11.99
2018-09-17T05:08:49.746Z,11.95
2018-09-17T05:11:18.416Z,12.00
2018-09-17T05:13:47.019Z,12.06
2018-09-17T05:16:15.689Z,12.10
2018-09-17T05:18:44.201Z,12.14
2018-09-17T05:21:12.844Z,12.23
2018-09-17T05:23:42.278Z,12.30
2018-09-17T05:26:10.782Z,12.37
2018-09-17T05:28:39.337Z,12.45
2018-09-17T05:31:07.877Z,12.49
2018-09-17T05:33:36.463Z,12.56
2018-09-17T05:36:04.963Z,12.62
2018-09-17T05:38:35.491Z,12.68
2018-09-17T05:41:04.594Z,12.73
2018-09-17T05:43:33.240Z,12.81
2018-09-17T05:46:02.540Z,12.88
2018-09-17T05:48:31.042Z,12.98
2018-09-17T05:50:59.653Z,13.05
2018-09-17T05:53:28.368Z,13.20
2018-09-17T05:55:57.131Z,13.28
2018-09-17T05:58:25.805Z,13.38
2018-09-17T06:00:54.689Z,13.50
2018-09-17T06:03:23.384Z,13.64
2018-09-17T06:05:52.078Z,13.77
2018-09-17T06:08:20.613Z,13.89
2018-09-17T06:10:49.266Z,14.00
2018-09-17T06:13:17.779Z,14.10
2018-09-17T06:15:46.264Z,14.19
2018-09-17T06:18:16.325Z,14.30
2018-09-17T06:20:44.832Z,14.41
2018-09-17T06:23:13.441Z,14.55
2018-09-17T06:25:41.944Z,14.69
2018-09-17T06:28:10.470Z,14.75
2018-09-17T06:30:39.009Z,14.69
2018-09-17T06:33:07.504Z,14.62
2018-09-17T06:35:35.974Z,14.59
2018-09-17T06:38:04.327Z,14.53
2018-09-17T06:40:33.195Z,14.56
2018-09-17T06:43:01.708Z,14.57
2018-09-17T06:45:30.227Z,14.61
2018-09-17T06:47:59.428Z,14.72
2018-09-17T06:50:27.906Z,14.82
2018-09-17T06:52:56.386Z,14.93
2018-09-17T06:55:24.894Z,15.03
2018-09-17T06:57:53.352Z,15.15
2018-09-17T07:00:21.840Z,15.32
2018-09-17T07:02:50.393Z,15.53
2018-09-17T07:05:18.963Z,15.68
2018-09-17T07:07:47.575Z,15.92
2018-09-17T07:10:16.091Z,16.04
2018-09-17T07:12:44.553Z,16.20
2018-09-17T07:15:13.057Z,16.38
2018-09-17T07:17:41.678Z,16.43
2018-09-17T07:20:10.176Z,16.55
2018-09-17T07:22:38.655Z,16.63
2018-09-17T07:25:08.001Z,16.70
2018-09-17T07:27:36.692Z,16.65
2018-09-17T07:30:05.396Z,16.73
2018-09-17T07:32:33.994Z,16.88
2018-09-17T07:35:02.473Z,16.98
2018-09-17T07:37:31.059Z,17.17
2018-09-17T07:39:59.470Z,17.25
2018-09-17T07:42:27.987Z,17.29
2018-09-17T07:44:56.535Z,17.30
2018-09-17T07:47:25.139Z,17.37
2018-09-17T07:49:53.658Z,17.58
2018-09-17T07:52:22.206Z,17.63
2018-09-17T07:54:51.479Z,17.87
2018-09-17T07:57:20.143Z,18.13
2018-09-17T07:59:48.868Z,18.35
2018-09-17T08:02:17.453Z,18.50
2018-09-17T08:04:46.011Z,18.62
2018-09-17T08:07:14.503Z,18.82
2018-09-17T08:09:43.034Z,19.15
2018-09-17T08:12:11.659Z,19.34
2018-09-17T08:14:40.163Z,19.58
2018-09-17T08:17:08.648Z,19.61
2018-09-17T08:19:37.847Z,19.66
2018-09-17T08:22:06.334Z,19.79
2018-09-17T08:24:35.067Z,19.93
2018-09-17T08:27:03.564Z,20.28
2018-09-17T08:29:32.003Z,20.52
2018-09-17T08:32:00.490Z,20.95
2018-09-17T08:34:29.057Z,21.21
2018-09-17T08:36:57.532Z,21.40
2018-09-17T08:39:26.004Z,21.46
2018-09-17T08:41:54.503Z,21.63
2018-09-17T08:44:23.051Z,21.84
2018-09-17T08:46:51.449Z,21.37
2018-09-17T08:49:19.980Z,21.38
2018-09-17T08:51:48.550Z,21.41
2018-09-17T08:54:17.059Z,21.45
2018-09-17T08:56:49.793Z,21.18
2018-09-17T08:59:23.732Z,21.26
2018-09-17T09:01:57.795Z,21.23
2018-09-17T09:04:31.432Z,21.30
2018-09-17T09:07:05.815Z,21.43
2018-09-17T09:09:34.245Z,21.53
2018-09-17T09:12:08.043Z,21.57
2018-09-17T09:14:39.172Z,21.61
2018-09-17T09:17:08.760Z,21.75
2018-09-17T09:19:37.255Z,21.74
2018-09-17T09:22:05.625Z,21.91
2018-09-17T09:24:34.011Z,22.13
2018-09-17T09:27:03.328Z,22.20
2018-09-17T09:29:31.783Z,22.20
2018-09-17T09:32:00.272Z,22.20
2018-09-17T09:34:28.729Z,22.44
2018-09-17T09:36:57.207Z,22.48
2018-09-17T09:39:25.689Z,22.58
2018-09-17T09:41:54.126Z,22.72
2018-09-17T09:44:22.603Z,22.81
2018-09-17T09:46:51.117Z,22.85
2018-09-17T09:49:19.596Z,22.91
2018-09-17T09:51:48.120Z,22.94
2018-09-17T09:54:16.704Z,22.94
2018-09-17T09:56:45.235Z,23.00
2018-09-17T09:59:13.684Z,23.09
2018-09-17T10:01:47.384Z,22.97
2018-09-17T10:04:22.768Z,23.20
2018-09-17T10:06:52.267Z,23.22
2018-09-17T10:09:26.074Z,23.13
2018-09-17T10:11:59.854Z,23.08
2018-09-17T10:14:33.613Z,23.33
2018-09-17T10:17:07.810Z,23.26
2018-09-17T10:19:40.526Z,23.29
2018-09-17T10:22:09.124Z,23.55
2018-09-17T10:24:37.717Z,23.63
2018-09-17T10:27:06.210Z,23.57
2018-09-17T10:29:34.699Z,23.57
2018-09-17T10:32:03.239Z,23.73
2018-09-17T10:34:31.698Z,23.76
2018-09-17T10:37:00.312Z,23.84
2018-09-17T10:39:28.868Z,23.79
2018-09-17T10:41:57.448Z,23.74
2018-09-17T10:44:25.992Z,23.79
2018-09-17T10:46:54.495Z,23.71
2018-09-17T10:49:22.973Z,23.77
2018-09-17T10:51:51.595Z,23.74
2018-09-17T10:54:20.144Z,23.65
2018-09-17T10:56:48.675Z,23.88
2018-09-17T10:59:17.252Z,23.76
2018-09-17T11:01:45.717Z,23.61
2018-09-17T11:04:14.326Z,23.65
2018-09-17T11:06:42.910Z,23.68
2018-09-17T11:09:12.822Z,23.81
2018-09-17T11:11:41.755Z,23.82
2018-09-17T11:14:10.901Z,23.84
2018-09-17T11:16:39.589Z,23.97
2018-09-17T11:19:08.477Z,24.06
2018-09-17T11:21:37.284Z,24.16
2018-09-17T11:24:05.753Z,24.17
2018-09-17T11:26:34.532Z,24.14
2018-09-17T11:29:03.089Z,24.29
2018-09-17T11:31:31.840Z,24.49
2018-09-17T11:34:00.415Z,24.55
2018-09-17T11:36:28.982Z,24.65
2018-09-17T11:38:58.194Z,24.80
2018-09-17T11:41:26.616Z,24.92
2018-09-17T11:43:55.152Z,24.92
2018-09-17T11:46:23.663Z,24.85
2018-09-17T11:48:52.185Z,24.97
2018-09-17T11:51:20.649Z,25.00
2018-09-17T11:53:49.120Z,25.02
2018-09-17T11:56:17.605Z,25.05
2018-09-17T11:58:46.101Z,25.11
2018-09-17T12:03:25.503Z,25.01
2018-09-17T12:06:01.187Z,24.78
2018-09-17T12:08:29.822Z,24.78
2018-09-17T12:10:58.647Z,24.72
2018-09-17T12:13:27.375Z,24.75
2018-09-17T12:15:56.039Z,24.81
2018-09-17T12:18:24.967Z,24.68
2018-09-17T12:20:55.290Z,24.64
2018-09-17T12:23:24.203Z,24.59
2018-09-17T12:25:52.890Z,24.68
2018-09-17T12:28:22.569Z,24.73
2018-09-17T12:30:51.855Z,24.76
2018-09-17T12:33:20.438Z,24.79
2018-09-17T12:35:49.974Z,24.83
2018-09-17T12:38:18.865Z,24.90
2018-09-17T12:40:47.495Z,24.95
2018-09-17T12:43:16.200Z,24.85
2018-09-17T12:45:45.723Z,24.92
2018-09-17T12:48:14.593Z,24.98
2018-09-17T12:50:49.910Z,25.02
2018-09-17T12:53:19.411Z,25.09
2018-09-17T12:55:48.164Z,25.01
2018-09-17T12:58:17.114Z,25.09
2018-09-17T13:00:47.171Z,25.06
2018-09-17T13:03:16.067Z,25.02
2018-09-17T13:05:44.868Z,24.98
2018-09-17T13:08:13.717Z,25.01
2018-09-17T13:10:42.443Z,25.03
2018-09-17T13:13:11.494Z,25.01
2018-09-17T13:15:45.466Z,24.99
2018-09-17T13:18:14.084Z,25.09
2018-09-17T13:20:42.767Z,25.10
2018-09-17T13:23:11.548Z,25.17
2018-09-17T13:25:40.302Z,25.18
2018-09-17T13:28:09.191Z,25.17
2018-09-17T13:30:37.883Z,25.18
2018-09-17T13:33:06.617Z,25.26
2018-09-17T13:35:35.483Z,25.39
2018-09-17T13:38:04.140Z,25.42
2018-09-17T13:40:32.829Z,25.39
2018-09-17T13:43:01.324Z,25.49
2018-09-17T13:45:30.112Z,25.46
2018-09-17T13:47:59.424Z,25.47
2018-09-17T13:50:28.350Z,25.55
2018-09-17T13:52:59.688Z,25.48
2018-09-17T13:55:28.400Z,25.46
2018-09-17T13:57:57.090Z,25.57
2018-09-17T14:00:26.583Z,25.48
2018-09-17T14:02:55.296Z,25.48
2018-09-17T14:05:24.593Z,25.57
2018-09-17T14:07:53.320Z,25.52
2018-09-17T14:10:22.331Z,25.40
2018-09-17T14:12:51.004Z,25.32
2018-09-17T14:15:19.828Z,25.36
2018-09-17T14:17:49.064Z,25.40
2018-09-17T14:20:17.857Z,25.37
2018-09-17T14:22:46.629Z,25.34
2018-09-17T14:25:15.460Z,25.45
2018-09-17T14:27:45.211Z,25.50
2018-09-17T14:30:14.215Z,25.48
2018-09-17T14:32:48.134Z,25.53
2018-09-17T14:35:17.387Z,25.52
2018-09-17T14:37:46.291Z,25.55
2018-09-17T14:40:15.215Z,25.59
2018-09-17T14:42:44.113Z,25.50
2018-09-17T14:45:12.920Z,25.48
2018-09-17T14:47:41.692Z,25.43
2018-09-17T14:50:10.241Z,25.33
2018-09-17T14:52:39.151Z,25.40
2018-09-17T14:55:08.070Z,25.44
2018-09-17T14:57:36.928Z,25.52
2018-09-17T15:00:05.687Z,25.48
2018-09-17T15:02:34.406Z,25.40
2018-09-17T15:05:03.320Z,25.43
2018-09-17T15:07:31.845Z,25.37
2018-09-17T15:10:00.727Z,25.38
2018-09-17T15:12:29.317Z,25.40
2018-09-17T15:14:58.299Z,25.33
2018-09-17T15:17:27.003Z,25.36
2018-09-17T15:19:57.658Z,25.38
2018-09-17T15:22:26.390Z,25.39
2018-09-17T15:24:55.101Z,25.41
2018-09-17T15:27:23.834Z,25.46
2018-09-17T15:29:52.569Z,25.26
2018-09-17T15:32:21.263Z,25.38
2018-09-17T15:34:49.806Z,25.30
2018-09-17T15:37:18.640Z,25.34
2018-09-17T15:39:47.320Z,25.40
2018-09-17T15:42:16.103Z,25.35
2018-09-17T15:44:44.948Z,25.36
2018-09-17T15:47:13.468Z,25.25
2018-09-17T15:49:42.311Z,25.25
2018-09-17T15:52:12.429Z,25.25
2018-09-17T15:54:41.454Z,25.19
2018-09-17T15:57:22.376Z,25.17
2018-09-17T15:59:54.554Z,25.17
2018-09-17T16:02:23.463Z,25.15
2018-09-17T16:04:52.356Z,25.14
2018-09-17T16:07:20.871Z,25.12
2018-09-17T16:09:49.496Z,25.10
2018-09-17T16:12:18.425Z,25.05
2018-09-17T16:14:47.865Z,25.00
2018-09-17T16:17:16.951Z,24.94
2018-09-17T16:19:46.652Z,24.89
2018-09-17T16:22:15.428Z,24.86
2018-09-17T16:24:45.760Z,24.83
2018-09-17T16:27:14.696Z,24.74
2018-09-17T16:29:44.057Z,24.73
2018-09-17T16:32:13.824Z,24.61
2018-09-17T16:34:44.499Z,24.57
2018-09-17T16:37:13.479Z,24.52
2018-09-17T16:39:42.204Z,24.39
2018-09-17T16:42:10.970Z,24.32
2018-09-17T16:44:39.971Z,24.28
2018-09-17T16:47:09.464Z,24.18
2018-09-17T16:49:40.292Z,24.13
2018-09-17T16:52:09.195Z,24.00
2018-09-17T16:54:41.113Z,23.95
2018-09-17T16:57:10.551Z,23.86
2018-09-17T16:59:39.315Z,23.75
2018-09-17T17:02:08.204Z,23.61
2018-09-17T17:04:36.907Z,23.54
2018-09-17T17:07:06.618Z,23.45
2018-09-17T17:09:35.722Z,23.39
2018-09-17T17:12:04.539Z,23.27
2018-09-17T17:14:33.614Z,23.16
2018-09-17T17:17:02.520Z,23.05
2018-09-17T17:19:31.764Z,22.94
2018-09-17T17:22:00.683Z,22.86
2018-09-17T17:24:29.770Z,22.74
2018-09-17T17:26:58.943Z,22.68
2018-09-17T17:29:27.950Z,22.57
2018-09-17T17:31:57.565Z,22.47
2018-09-17T17:34:26.398Z,22.36
2018-09-17T17:36:55.868Z,22.24
2018-09-17T17:39:24.734Z,22.17
2018-09-17T17:41:53.626Z,22.05
2018-09-17T17:44:23.215Z,21.91
2018-09-17T17:46:52.411Z,21.83
2018-09-17T17:49:21.085Z,21.79
2018-09-17T17:51:49.753Z,21.65
2018-09-17T17:54:18.790Z,21.63
2018-09-17T17:56:47.586Z,21.52
2018-09-17T17:59:18.622Z,21.34
2018-09-17T18:01:47.347Z,21.29
2018-09-17T18:04:15.910Z,21.24
2018-09-17T18:06:45.599Z,21.18
2018-09-17T18:09:14.469Z,21.08
2018-09-17T18:11:44.079Z,21.00
2018-09-17T18:14:13.293Z,20.90
2018-09-17T18:16:43.114Z,20.80
2018-09-17T18:19:11.817Z,20.75
2018-09-17T18:21:40.811Z,20.70
2018-09-17T18:24:09.332Z,20.63
2018-09-17T18:26:37.827Z,20.55
2018-09-17T18:29:07.140Z,20.49
2018-09-17T18:31:35.906Z,20.41
2018-09-17T18:34:04.911Z,20.35
2018-09-17T18:36:33.455Z,20.27
2018-09-17T18:39:02.234Z,20.17
2018-09-17T18:41:30.868Z,20.02
2018-09-17T18:43:59.555Z,19.99
2018-09-17T18:46:28.239Z,19.94
2018-09-17T18:48:57.396Z,19.81
2018-09-17T18:51:26.614Z,19.77
2018-09-17T18:53:55.473Z,19.69
2018-09-17T18:56:24.841Z,19.69
2018-09-17T18:58:54.244Z,19.60
2018-09-17T19:01:23.143Z,19.52
2018-09-17T19:03:52.574Z,19.51
2018-09-17T19:06:22.517Z,19.45
2018-09-17T19:08:52.697Z,19.37
2018-09-17T19:11:21.321Z,19.27
2018-09-17T19:13:55.266Z,19.11
2018-09-17T19:16:29.289Z,19.16
2018-09-17T19:18:57.924Z,19.16
2018-09-17T19:21:30.747Z,19.13
2018-09-17T19:24:04.527Z,19.11
2018-09-17T19:26:33.132Z,18.99
2018-09-17T19:29:06.868Z,18.94
2018-09-17T19:31:39.613Z,18.87
2018-09-17T19:34:08.555Z,18.87
2018-09-17T19:36:37.918Z,18.85
2018-09-17T19:39:13.513Z,18.73
2018-09-17T19:41:42.371Z,18.68
2018-09-17T19:44:10.989Z,18.63
2018-09-17T19:46:40.064Z,18.51
2018-09-17T19:49:09.192Z,18.54
2018-09-17T19:51:43.883Z,18.46
2018-09-17T19:54:13.346Z,18.38
2018-09-17T19:56:42.818Z,18.30
2018-09-17T19:59:17.242Z,18.24
2018-09-17T20:01:46.516Z,18.22
2018-09-17T20:06:23.754Z,18.15
2018-09-17T20:08:53.126Z,18.07
2018-09-17T20:11:22.626Z,17.93
2018-09-17T20:13:52.134Z,17.93
2018-09-17T20:16:20.962Z,17.91
2018-09-17T20:18:50.199Z,17.82
2018-09-17T20:21:18.723Z,17.84
2018-09-17T20:23:47.288Z,17.73
2018-09-17T20:26:15.995Z,17.76
2018-09-17T20:28:44.690Z,17.68
2018-09-17T20:31:13.300Z,17.68
2018-09-17T20:33:42.462Z,17.65
2018-09-17T20:36:11.811Z,17.60
2018-09-17T20:38:40.349Z,17.51
2018-09-17T20:41:10.454Z,17.53
2018-09-17T20:43:41.105Z,17.50
2018-09-17T20:46:09.844Z,17.48
2018-09-17T20:48:38.567Z,17.45
2018-09-17T20:51:07.623Z,17.37
2018-09-17T20:53:36.952Z,17.32
2018-09-17T20:56:06.054Z,17.26
2018-09-17T20:58:34.737Z,17.09
2018-09-17T21:01:03.456Z,17.11
2018-09-17T21:03:32.111Z,17.14
2018-09-17T21:06:00.783Z,17.15
2018-09-17T21:08:29.429Z,17.13
2018-09-17T21:10:58.297Z,17.10
2018-09-17T21:13:27.042Z,17.02
2018-09-17T21:15:55.545Z,16.98
2018-09-17T21:18:24.469Z,16.97
2018-09-17T21:20:53.102Z,16.90
2018-09-17T21:23:22.470Z,16.94
2018-09-17T21:25:51.042Z,16.95
2018-09-17T21:28:19.514Z,16.92
2018-09-17T21:30:48.667Z,16.91
2018-09-17T21:33:17.563Z,16.91
2018-09-17T21:35:47.324Z,16.89
2018-09-17T21:38:15.804Z,16.87
2018-09-17T21:40:44.386Z,16.84
2018-09-17T21:43:12.985Z,16.78
2018-09-17T21:45:41.751Z,16.72
2018-09-17T21:48:11.293Z,16.64
2018-09-17T21:50:39.936Z,16.67
2018-09-17T21:53:08.861Z,16.63
2018-09-17T21:55:37.551Z,16.62
2018-09-17T21:58:06.236Z,16.62
2018-09-17T22:01:11.526Z,16.59
2018-09-17T22:03:40.687Z,16.55
2018-09-17T22:06:09.873Z,16.53
2018-09-17T22:08:38.526Z,16.49
2018-09-17T22:11:07.441Z,16.30
2018-09-17T22:13:36.052Z,16.38
2018-09-17T22:16:04.766Z,16.28
2018-09-17T22:18:33.461Z,16.32
2018-09-17T22:21:02.048Z,16.28
2018-09-17T22:23:30.565Z,16.27
2018-09-17T22:25:59.232Z,16.24
2018-09-17T22:28:27.625Z,16.21
2018-09-17T22:30:57.595Z,16.17
2018-09-17T22:33:26.163Z,16.10
2018-09-17T22:35:55.311Z,16.17
2018-09-17T22:38:23.784Z,16.09
2018-09-17T22:40:52.536Z,16.08
2018-09-17T22:43:21.117Z,16.09
2018-09-17T22:45:50.621Z,16.05
2018-09-17T22:48:19.705Z,16.06
2018-09-17T22:50:48.209Z,16.04
2018-09-17T22:55:59.597Z,15.99
2018-09-17T22:58:28.386Z,15.99
2018-09-17T23:00:57.003Z,15.99
2018-09-17T23:03:25.536Z,15.92
2018-09-17T23:05:54.313Z,15.90
2018-09-17T23:08:22.818Z,15.85
2018-09-17T23:10:51.911Z,15.87
2018-09-17T23:13:20.471Z,15.78
2018-09-17T23:15:49.974Z,15.70
2018-09-17T23:18:18.481Z,15.75
2018-09-17T23:20:46.990Z,15.79
2018-09-17T23:23:15.768Z,15.77
2018-09-17T23:25:44.954Z,15.70
2018-09-17T23:28:14.066Z,15.65
2018-09-17T23:30:43.571Z,15.69
2018-09-17T23:33:12.877Z,15.66
2018-09-17T23:35:41.548Z,15.59
2018-09-17T23:38:10.001Z,15.64
2018-09-17T23:40:39.117Z,15.65
2018-09-17T23:43:09.058Z,15.75
2018-09-17T23:45:38.197Z,15.71
2018-09-17T23:48:07.008Z,15.69
2018-09-17T23:50:36.130Z,15.70
2018-09-17T23:53:04.751Z,15.66
2018-09-17T23:55:33.396Z,15.63
2018-09-17T23:58:01.988Z,15.61
